Time;durP1;ratioP1;P1;durP2;ratioP2;P2;SDS_P1;SDS_P2;PMS_P1;PMS_P2;Temp;Humidity;BMP_temperature;BMP_pressure;BME280_temperature;BME280_humidity;BME280_pressure;Samples;Min_cycle;Max_cycle;Signal;HPM_P1;HPM_P2
2021/12/04 00:02:22;;;;;;;2.03;1.30;;;;;;;14.70;68.83;100746.59;144992;602;6002;-86
2021/12/04 00:04:51;;;;;;;2.33;1.30;;;;;;;14.66;68.67;100735.19;144992;610;6002;-87
2021/12/04 00:07:18;;;;;;;1.25;1.00;;;;;;;14.63;68.95;100726.44;144992;580;6002;-87
2021/12/04 00:09:45;;;;;;;1.67;0.93;;;;;;;14.60;69.08;100726.41;144992;598;6002;-88
2021/12/04 00:12:15;;;;;;;1.52;1.00;;;;;;;14.59;69.21;100712.44;144992;613;6002;-86
2021/12/04 00:14:42;;;;;;;1.40;1.10;;;;;;;14.60;68.96;100739.47;144992;564;6002;-86
2021/12/04 00:17:08;;;;;;;1.27;1.08;;;;;;;14.61;69.23;100765.59;144992;594;6002;-87
2021/12/04 00:19:35;;;;;;;1.58;1.12;;;;;;;14.60;69.75;100735.13;144992;564;6002;-86
2021/12/04 00:22:04;;;;;;;1.67;0.88;;;;;;;14.46;69.71;100679.16;144992;599;6002;-86
2021/12/04 00:24:31;;;;;;;1.67;1.33;;;;;;;14.26;70.26;100668.47;144992;770;6002;-87
2021/12/04 00:26:58;;;;;;;3.05;1.73;;;;;;;14.21;69.73;100699.72;144992;605;6002;-87
2021/12/04 00:29:24;;;;;;;2.37;1.75;;;;;;;14.08;71.16;100714.31;144992;611;6002;-87
2021/12/04 00:32:10;;;;;;;2.35;1.80;;;;;;;14.14;70.49;100716.13;144992;614;6002;-87
2021/12/04 00:34:41;;;;;;;2.00;1.30;;;;;;;14.23;70.44;100710.19;144992;639;6002;-86
2021/12/04 00:50:51;;;;;;;3.47;2.17;;;;;;;13.94;70.61;100669.75;144992;607;6004;-86
2021/12/04 00:53:17;;;;;;;3.12;2.00;;;;;;;13.77;71.70;100672.06;144992;565;6004;-85
2021/12/04 00:55:44;;;;;;;2.92;2.40;;;;;;;13.82;72.15;100679.97;144992;562;6004;-86
2021/12/04 00:58:11;;;;;;;3.75;2.40;;;;;;;13.87;70.70;100678.34;144992;563;6004;-85
2021/12/04 01:00:39;;;;;;;2.47;2.20;;;;;;;13.96;70.65;100672.38;144992;769;6004;-85
2021/12/04 01:03:07;;;;;;;3.50;2.20;;;;;;;14.02;70.48;100669.84;144992;568;6004;-86
2021/12/04 01:05:35;;;;;;;3.20;2.42;;;;;;;13.84;71.91;100673.06;144992;621;6004;-85
2021/12/04 01:08:01;;;;;;;3.97;2.75;;;;;;;13.95;70.91;100683.66;144992;851;6004;-82
2021/12/04 01:10:28;;;;;;;3.62;2.53;;;;;;;13.93;71.46;100675.81;144992;599;6004;-85
2021/12/04 01:13:00;;;;;;;3.20;2.55;;;;;;;13.96;70.99;100675.84;144991;561;6000;-85
2021/12/04 01:15:28;;;;;;;3.75;2.15;;;;;;;13.84;72.06;100673.06;144992;581;6002;-84
2021/12/04 01:17:55;;;;;;;3.37;2.15;;;;;;;13.94;70.74;100640.16;144992;591;6002;-85
2021/12/04 01:20:22;;;;;;;3.15;2.30;;;;;;;13.88;71.35;100617.44;144992;606;6002;-82
2021/12/04 01:22:48;;;;;;;2.70;2.10;;;;;;;13.87;71.10;100599.16;144992;590;6002;-84
2021/12/04 01:25:15;;;;;;;3.15;2.58;;;;;;;13.85;71.31;100596.53;144992;571;6002;-83
2021/12/04 01:27:43;;;;;;;4.68;2.90;;;;;;;13.83;71.23;100571.28;144992;692;6002;-85
2021/12/04 01:30:13;;;;;;;5.47;3.72;;;;;;;13.74;71.68;100559.88;144992;579;6002;-84
2021/12/04 01:32:39;;;;;;;5.97;3.90;;;;;;;13.79;71.30;100559.91;144992;622;6002;-86
2021/12/04 01:35:06;;;;;;;4.35;3.20;;;;;;;13.84;71.25;100542.63;144992;726;6002;-85
2021/12/04 01:37:33;;;;;;;4.10;2.42;;;;;;;13.91;70.85;100523.56;144992;599;6002;-86
2021/12/04 01:40:00;;;;;;;3.05;1.90;;;;;;;13.78;71.20;100500.78;144992;735;6002;-84
2021/12/04 01:42:27;;;;;;;2.85;1.98;;;;;;;13.85;70.77;100479.12;144992;621;6002;-83
2021/12/04 01:45:05;;;;;;;2.53;2.05;;;;;;;13.90;70.84;100500.97;144992;612;6002;-86
2021/12/04 01:47:40;;;;;;;3.00;2.30;;;;;;;13.94;70.82;100521.00;144992;595;6002;-85
2021/12/04 01:50:10;;;;;;;3.00;2.30;;;;;;;14.01;70.53;100531.50;144992;573;6002;-89
2021/12/04 01:52:37;;;;;;;3.70;2.55;;;;;;;14.06;70.65;100541.16;144992;610;6002;-87
2021/12/04 01:55:04;;;;;;;4.00;3.08;;;;;;;13.99;70.89;100568.03;144992;622;6002;-85
2021/12/04 01:57:32;;;;;;;3.50;2.53;;;;;;;14.00;70.57;100579.34;144992;571;6002;-86
2021/12/04 01:59:58;;;;;;;3.85;2.55;;;;;;;14.01;70.62;100596.75;144992;569;6003;-85
2021/12/04 02:02:25;;;;;;;4.43;3.05;;;;;;;13.83;72.06;100613.03;144992;574;6002;-86
2021/12/04 02:04:51;;;;;;;3.25;2.50;;;;;;;13.63;72.16;100637.06;144992;638;6002;-84
2021/12/04 02:07:20;;;;;;;4.68;2.78;;;;;;;13.69;71.56;100644.13;144992;581;6002;-85
2021/12/04 02:09:47;;;;;;;3.28;2.45;;;;;;;13.65;71.66;100639.69;144992;564;6002;-87
2021/12/04 02:12:13;;;;;;;5.97;3.95;;;;;;;13.55;73.21;100638.69;144992;594;6002;-84
2021/12/04 02:14:41;;;;;;;5.68;4.35;;;;;;;13.55;71.84;100636.97;144992;618;6002;-86
2021/12/04 02:17:08;;;;;;;7.45;5.60;;;;;;;13.65;71.42;100639.69;144992;583;6002;-84
2021/12/04 02:19:35;;;;;;;8.27;6.18;;;;;;;13.72;70.77;100632.00;144992;610;6002;-86
2021/12/04 02:22:02;;;;;;;10.10;7.32;;;;;;;13.79;70.85;100644.31;144992;570;6002;-85
2021/12/04 02:24:29;;;;;;;9.85;7.90;;;;;;;13.87;70.42;100638.31;144992;596;6002;-85
2021/12/04 02:26:55;;;;;;;9.25;7.10;;;;;;;13.90;70.74;100626.22;144991;642;6002;-85
2021/12/04 02:29:22;;;;;;;7.45;6.45;;;;;;;13.95;70.24;100623.63;144992;581;6002;-84
2021/12/04 02:31:50;;;;;;;8.90;7.00;;;;;;;13.97;70.40;100611.50;144992;590;6002;-85
2021/12/04 02:34:31;;;;;;;8.40;6.50;;;;;;;14.01;70.11;100608.06;144992;643;6002;-86
2021/12/04 02:36:58;;;;;;;7.78;6.50;;;;;;;14.04;70.03;100610.72;144992;685;6002;-85
2021/12/04 02:39:31;;;;;;;8.77;6.60;;;;;;;14.04;70.28;100612.47;144992;574;6002;-85
2021/12/04 02:42:01;;;;;;;9.98;7.20;;;;;;;13.97;70.00;100607.16;144991;574;6002;-86
2021/12/04 02:44:35;;;;;;;8.52;6.90;;;;;;;13.96;70.14;100608.00;144992;585;6002;-85
2021/12/04 02:47:01;;;;;;;8.07;7.00;;;;;;;13.96;70.00;100602.78;144992;619;6002;-86
2021/12/04 02:49:29;;;;;;;7.50;6.57;;;;;;;13.96;69.67;100594.94;144992;574;6002;-86
2021/12/04 02:52:00;;;;;;;7.55;6.72;;;;;;;13.98;69.96;100587.13;144992;565;6002;-86
2021/12/04 02:54:26;;;;;;;7.50;6.60;;;;;;;14.00;69.88;100581.94;144992;577;6002;-86
2021/12/04 02:56:53;;;;;;;7.10;6.40;;;;;;;13.99;69.72;100591.50;144992;566;6002;-85
2021/12/04 02:59:19;;;;;;;7.87;7.03;;;;;;;14.00;69.71;100577.62;144992;609;6002;-87
2021/12/04 03:01:46;;;;;;;7.87;6.55;;;;;;;14.03;69.77;100584.59;144992;587;6002;-84
2021/12/04 03:04:13;;;;;;;7.07;6.37;;;;;;;14.03;69.81;100592.44;144992;601;6002;-84
2021/12/04 03:06:41;;;;;;;7.18;6.32;;;;;;;14.01;69.76;100581.97;144992;594;6003;-87
2021/12/04 03:09:09;;;;;;;5.95;5.35;;;;;;;13.97;69.50;100581.06;144992;603;6002;-84
2021/12/04 03:11:36;;;;;;;6.12;4.65;;;;;;;13.97;69.74;100572.37;144992;565;6002;-84
2021/12/04 03:14:06;;;;;;;6.57;4.57;;;;;;;13.98;69.41;100566.25;144992;617;6002;-85
2021/12/04 03:16:33;;;;;;;3.97;3.30;;;;;;;13.98;69.36;100558.44;144992;623;6002;-85
2021/12/04 03:19:00;;;;;;;3.53;3.17;;;;;;;13.97;69.68;100544.53;144992;571;6002;-87
2021/12/04 03:21:27;;;;;;;4.32;3.45;;;;;;;13.97;69.33;100541.03;144992;657;6002;-86
2021/12/04 03:26:39;;;;;;;2.80;2.50;;;;;;;13.96;69.39;100549.72;144992;635;6004;-85
2021/12/04 03:29:13;;;;;;;3.08;2.10;;;;;;;13.95;69.42;100553.16;144992;620;6004;-84
2021/12/04 03:40:49;;;;;;;2.08;1.50;;;;;;;13.82;70.00;100586.06;144992;607;6002;-92
2021/12/04 03:43:29;;;;;;;1.58;1.00;;;;;;;13.92;69.58;100590.56;144992;584;6002;-85
2021/12/04 03:46:01;;;;;;;1.77;1.00;;;;;;;13.87;69.51;100594.84;144992;613;6002;-88
2021/12/04 03:51:19;;;;;;;0.70;0.70;;;;;;;13.77;69.79;100606.84;144992;643;6004;-84
2021/12/04 03:53:45;;;;;;;1.00;0.80;;;;;;;13.76;69.67;100602.50;144992;584;6004;-87
2021/12/04 03:56:14;;;;;;;1.62;0.80;;;;;;;13.79;69.28;100614.69;144992;634;6004;-86
2021/12/04 03:58:41;;;;;;;2.40;1.00;;;;;;;13.78;68.89;100613.84;144992;581;6005;-87
2021/12/04 04:01:10;;;;;;;1.15;0.85;;;;;;;13.74;68.94;100608.53;144992;590;6004;-86
2021/12/04 04:03:36;;;;;;;1.65;1.00;;;;;;;13.75;68.94;100611.19;144992;702;6004;-86
2021/12/04 04:06:03;;;;;;;1.70;1.00;;;;;;;13.75;68.61;100608.56;144992;707;6004;-85
2021/12/04 04:08:29;;;;;;;1.60;1.20;;;;;;;13.73;68.59;100612.91;144992;564;6004;-86
2021/12/04 04:10:56;;;;;;;1.37;1.00;;;;;;;13.74;68.46;100624.19;144992;568;6004;-85
2021/12/04 04:13:22;;;;;;;2.55;1.17;;;;;;;13.72;68.24;100618.09;144992;594;6004;-85
2021/12/04 04:15:49;;;;;;;3.17;1.37;;;;;;;13.69;68.23;100620.66;144992;682;6004;-85
2021/12/04 04:18:16;;;;;;;2.35;1.10;;;;;;;13.69;68.38;100615.44;144991;611;6000;-87
2021/12/04 04:20:42;;;;;;;1.98;1.15;;;;;;;13.69;68.28;100636.31;144992;629;6002;-85
2021/12/04 04:23:09;;;;;;;2.40;1.27;;;;;;;13.65;68.51;100631.88;144992;599;6011;-86
2021/12/04 04:25:35;;;;;;;2.30;1.27;;;;;;;13.66;68.23;100644.94;144992;618;6002;-86
2021/12/04 04:28:02;;;;;;;2.20;1.20;;;;;;;13.65;68.09;100648.44;144992;563;6002;-87
2021/12/04 04:30:28;;;;;;;2.67;1.20;;;;;;;13.63;68.16;100650.09;144992;589;6002;-85
2021/12/04 04:32:55;;;;;;;1.87;1.40;;;;;;;13.61;68.35;100646.59;144992;642;6002;-86
2021/12/04 04:35:25;;;;;;;1.98;1.48;;;;;;;13.60;68.05;100647.44;144992;568;6002;-85
2021/12/04 04:38:14;;;;;;;1.87;1.60;;;;;;;13.61;68.00;100654.44;144992;645;6002;-85
2021/12/04 05:11:07;;;;;;;2.25;1.62;;;;;;;13.53;68.11;100667.34;144993;624;6000;-86
2021/12/04 05:13:33;;;;;;;4.03;2.03;;;;;;;13.52;68.33;100677.75;144993;564;6002;-87
2021/12/04 05:16:10;;;;;;;3.75;2.00;;;;;;;13.52;68.22;100673.44;144993;639;6002;-85
2021/12/04 05:18:40;;;;;;;4.57;1.90;;;;;;;13.54;68.09;100681.28;144993;624;6002;-85
2021/12/04 05:21:11;;;;;;;2.78;1.83;;;;;;;13.54;68.15;100683.88;144993;627;6002;-86
2021/12/04 05:23:44;;;;;;;4.55;2.12;;;;;;;13.53;68.31;100683.00;144993;564;6002;-86
2021/12/04 05:26:16;;;;;;;4.78;2.10;;;;;;;13.53;67.86;100689.94;144993;563;6002;-86
2021/12/04 05:28:44;;;;;;;3.85;2.60;;;;;;;13.50;68.20;100695.09;144993;574;6002;-86
2021/12/04 05:31:11;;;;;;;5.15;3.28;;;;;;;13.50;68.09;100695.09;144993;586;6002;-85
2021/12/04 05:33:39;;;;;;;5.80;3.90;;;;;;;13.50;68.35;100697.72;144993;619;6002;-84
2021/12/04 05:36:06;;;;;;;4.95;3.95;;;;;;;13.49;68.19;100690.72;144993;614;6002;-86
2021/12/04 05:38:35;;;;;;;4.57;3.75;;;;;;;13.49;68.02;100677.69;144993;569;6002;-86
2021/12/04 05:41:18;;;;;;;4.37;3.72;;;;;;;13.50;68.12;100671.63;144993;616;6002;-84
2021/12/04 05:44:04;;;;;;;;;;;;;;;;;;;;;
2021/12/04 05:46:43;;;;;;;6.10;4.03;;;;;;;13.63;68.22;100672.72;144992;643;6000;-86
2021/12/04 05:49:20;;;;;;;6.10;4.12;;;;;;;13.66;68.16;100673.63;144992;629;6000;-86
2021/12/04 05:54:44;;;;;;;5.82;3.53;;;;;;;13.68;67.94;100663.22;144992;563;6002;-84
2021/12/04 05:57:12;;;;;;;4.97;3.55;;;;;;;13.67;68.04;100664.97;144993;563;6002;-86
2021/12/04 05:59:39;;;;;;;4.55;3.35;;;;;;;13.64;68.06;100664.06;144993;606;6002;-85
2021/12/04 06:02:06;;;;;;;5.85;3.37;;;;;;;13.63;68.03;100660.53;144993;627;6002;-86
2021/12/04 06:04:32;;;;;;;4.60;2.90;;;;;;;13.64;68.02;100667.53;144993;569;6002;-86
2021/12/04 06:06:59;;;;;;;4.20;2.90;;;;;;;13.66;67.89;100658.00;144993;580;6002;-85
2021/12/04 06:09:26;;;;;;;4.47;3.12;;;;;;;13.71;68.03;100663.28;144993;618;6002;-86
2021/12/04 06:11:53;;;;;;;4.80;2.92;;;;;;;13.96;67.77;100665.41;144993;694;6002;-85
2021/12/04 06:14:19;;;;;;;4.65;3.25;;;;;;;14.44;66.71;100668.69;144993;569;6002;-85
2021/12/04 06:16:46;;;;;;;4.10;3.70;;;;;;;15.04;65.99;100669.44;144993;593;6002;-87
2021/12/04 06:19:25;;;;;;;4.75;3.60;;;;;;;15.64;64.93;100663.00;144993;566;6002;-85
2021/12/04 06:24:35;;;;;;;7.80;3.50;;;;;;;16.53;63.11;100632.19;144993;571;6000;-85
2021/12/04 06:27:18;;;;;;;4.72;3.60;;;;;;;16.55;62.67;100646.16;144993;590;6002;-85
2021/12/04 06:29:57;;;;;;;6.82;4.18;;;;;;;16.31;63.39;100671.37;144993;603;6002;-86
2021/12/04 06:32:41;;;;;;;8.48;4.43;;;;;;;16.07;59.82;100674.72;144993;654;6002;-86
2021/12/04 06:35:39;;;;;;;8.27;5.70;;;;;;;15.63;64.18;100674.34;144993;724;6002;-85
2021/12/04 06:38:40;;;;;;;8.45;6.05;;;;;;;15.64;63.99;100691.78;144993;570;6002;-85
2021/12/04 06:41:32;;;;;;;10.73;6.90;;;;;;;15.64;63.44;100705.78;144993;623;6004;-86
2021/12/04 06:44:16;;;;;;;12.85;8.45;;;;;;;15.64;63.52;100707.50;144993;677;6004;-86
2021/12/04 06:46:56;;;;;;;18.02;11.12;;;;;;;15.64;63.49;100707.50;144993;623;6002;-85
2021/12/04 06:49:28;;;;;;;20.90;15.70;;;;;;;15.67;63.58;100700.56;144994;598;5002;-86
2021/12/04 06:51:58;;;;;;;22.77;15.73;;;;;;;15.69;63.30;100704.06;144994;613;5002;-86
2021/12/04 06:54:28;;;;;;;17.95;12.30;;;;;;;15.60;63.22;100707.50;144994;597;5002;-86
2021/12/04 06:56:55;;;;;;;13.85;9.73;;;;;;;15.50;63.42;100721.34;144994;604;5002;-84
2021/12/04 06:59:26;;;;;;;12.70;8.52;;;;;;;15.39;63.51;100733.44;144994;595;5002;-85
2021/12/04 07:01:53;;;;;;;11.73;7.45;;;;;;;15.27;63.39;100728.06;144994;613;5002;-86
2021/12/04 07:04:20;;;;;;;10.45;7.47;;;;;;;15.16;63.79;100733.19;144993;636;5002;-85
2021/12/04 07:06:48;;;;;;;13.70;8.02;;;;;;;15.08;63.81;100727.88;144994;605;5002;-85
2021/12/04 07:09:15;;;;;;;12.15;8.73;;;;;;;15.01;64.06;100733.88;144994;567;5002;-85
2021/12/04 07:11:42;;;;;;;12.98;8.45;;;;;;;14.97;64.56;100739.94;144994;637;5002;-85
2021/12/04 07:14:08;;;;;;;10.60;7.87;;;;;;;14.94;64.51;100735.56;144994;693;5002;-85
2021/12/04 07:16:36;;;;;;;14.85;9.30;;;;;;;14.93;64.69;100746.00;144994;607;5002;-85
2021/12/04 07:19:03;;;;;;;13.05;9.52;;;;;;;14.92;64.63;100739.00;144994;564;5002;-86
2021/12/04 07:21:46;;;;;;;13.27;9.18;;;;;;;14.87;64.75;100745.06;144994;597;5002;-83
2021/12/04 07:24:41;;;;;;;15.93;8.60;;;;;;;14.92;65.16;100747.75;144994;619;5002;-86
2021/12/04 07:27:08;;;;;;;11.75;8.13;;;;;;;15.02;65.32;100738.28;144994;579;5002;-87
2021/12/04 07:29:35;;;;;;;12.13;8.02;;;;;;;15.11;65.08;100747.94;144994;603;5002;-86
2021/12/04 07:32:02;;;;;;;11.55;8.50;;;;;;;15.18;64.86;100745.41;144994;581;5002;-85
2021/12/04 07:34:28;;;;;;;12.32;8.13;;;;;;;15.30;64.97;100739.44;144994;569;5002;-85
2021/12/04 07:36:55;;;;;;;11.75;8.60;;;;;;;15.41;64.93;100739.56;144994;663;5002;-85
2021/12/04 07:39:21;;;;;;;11.57;8.50;;;;;;;15.49;64.96;100739.63;144994;639;5002;-84
2021/12/04 07:41:47;;;;;;;10.40;7.53;;;;;;;15.54;64.57;100733.59;144993;566;5002;-84
2021/12/04 07:44:14;;;;;;;8.90;6.68;;;;;;;15.55;64.58;100727.47;144994;635;5002;-85
2021/12/04 07:46:44;;;;;;;11.48;6.90;;;;;;;15.50;64.63;100737.03;144994;604;5002;-87
2021/12/04 07:49:10;;;;;;;9.32;6.00;;;;;;;15.44;64.79;100739.59;144994;575;5002;-86
2021/12/04 07:51:37;;;;;;;7.28;5.65;;;;;;;15.39;64.69;100755.22;144994;566;5002;-86
2021/12/04 07:54:04;;;;;;;7.30;5.40;;;;;;;15.33;64.84;100772.59;144994;571;5002;-88
2021/12/04 07:56:31;;;;;;;9.25;5.03;;;;;;;15.31;64.64;100783.03;144994;565;5002;-88
2021/12/04 07:59:01;;;;;;;8.52;5.43;;;;;;;15.27;64.75;100786.50;144994;594;5002;-86
2021/12/04 08:01:27;;;;;;;10.63;8.05;;;;;;;15.24;64.72;100810.00;144994;637;5002;-84
2021/12/04 08:03:54;;;;;;;17.62;10.77;;;;;;;15.21;64.94;100817.81;144994;692;5002;-88
2021/12/04 08:06:21;;;;;;;16.20;11.43;;;;;;;15.22;65.12;100828.28;144994;607;5002;-86
2021/12/04 08:08:48;;;;;;;17.75;11.48;;;;;;;15.18;65.34;100836.94;144994;575;5002;-88
2021/12/04 08:11:15;;;;;;;18.33;12.68;;;;;;;15.16;65.25;100850.84;144993;580;5002;-86
2021/12/04 08:13:42;;;;;;;16.67;10.45;;;;;;;14.74;65.64;100872.91;144994;752;5002;-85
2021/12/04 08:16:09;;;;;;;14.50;9.43;;;;;;;14.83;66.33;100881.78;144994;569;5002;-85
2021/12/04 08:18:36;;;;;;;17.42;10.18;;;;;;;14.83;66.17;100879.16;144994;589;5002;-83
2021/12/04 08:21:02;;;;;;;15.52;9.65;;;;;;;14.81;66.97;100887.81;144994;646;5002;-86
2021/12/04 08:23:29;;;;;;;13.77;9.73;;;;;;;14.84;66.34;100894.00;144994;622;5002;-86
2021/12/04 08:25:57;;;;;;;18.27;11.27;;;;;;;14.80;66.43;100889.56;144994;591;5002;-85
2021/12/04 08:28:24;;;;;;;14.02;8.75;;;;;;;14.67;67.33;100874.56;144994;612;5002;-87
2021/12/04 08:30:50;;;;;;;16.87;10.57;;;;;;;14.69;66.71;100876.31;144994;582;5002;-88
2021/12/04 08:33:17;;;;;;;13.20;9.07;;;;;;;14.71;66.93;100875.47;144994;627;5002;-88
2021/12/04 08:35:44;;;;;;;11.95;8.63;;;;;;;14.68;67.12;100879.81;144994;569;5002;-86
2021/12/04 08:38:14;;;;;;;14.45;9.05;;;;;;;14.79;66.71;100887.78;144994;571;5002;-85
2021/12/04 08:40:42;;;;;;;14.27;9.57;;;;;;;14.94;66.97;100881.06;144994;603;5002;-82
2021/12/04 08:43:10;;;;;;;16.02;10.40;;;;;;;15.08;66.72;100882.13;144994;639;5002;-88
2021/12/04 08:45:41;;;;;;;15.10;9.50;;;;;;;15.18;66.15;100886.62;144994;578;5002;-85
2021/12/04 08:48:08;;;;;;;14.57;9.35;;;;;;;15.24;66.23;100876.25;144994;621;5002;-86
2021/12/04 08:50:37;;;;;;;14.52;8.63;;;;;;;15.21;66.32;100867.50;144994;640;5002;-89
2021/12/04 08:53:06;;;;;;;10.82;7.97;;;;;;;15.04;65.47;100870.72;144994;565;5002;-87
2021/12/04 08:55:35;;;;;;;13.73;8.52;;;;;;;15.05;66.16;100869.88;144994;580;5002;-90
2021/12/04 08:58:03;;;;;;;13.57;9.05;;;;;;;15.00;66.41;100871.56;144993;579;5002;-88
2021/12/04 09:00:58;;;;;;;11.88;9.25;;;;;;;15.01;66.08;100872.44;144994;570;5002;-85
2021/12/04 09:03:31;;;;;;;19.33;9.70;;;;;;;14.74;67.30;100873.78;144993;590;5004;-87
2021/12/04 09:05:59;;;;;;;20.20;12.15;;;;;;;14.52;67.51;100867.31;144994;628;5002;-85
2021/12/04 09:08:28;;;;;;;18.45;11.60;;;;;;;14.41;68.10;100859.34;144994;597;5002;-86
2021/12/04 09:10:58;;;;;;;10.60;8.50;;;;;;;14.34;68.37;100847.00;144994;705;5002;-89
2021/12/04 09:13:28;;;;;;;13.45;9.35;;;;;;;14.11;68.93;100847.50;144994;604;5002;-89
2021/12/04 09:15:57;;;;;;;12.85;8.88;;;;;;;14.18;68.71;100852.84;144994;617;5002;-87
2021/12/04 09:18:24;;;;;;;12.98;8.65;;;;;;;14.39;68.35;100854.91;144994;618;5002;-86
2021/12/04 09:20:53;;;;;;;10.50;7.35;;;;;;;14.44;68.42;100855.88;144994;588;5002;-91
2021/12/04 09:23:22;;;;;;;9.70;7.40;;;;;;;14.64;67.67;100853.63;144994;612;5002;-90
2021/12/04 09:25:52;;;;;;;9.38;7.12;;;;;;;14.65;68.18;100860.56;144994;645;5002;-89
2021/12/04 09:28:23;;;;;;;9.95;6.20;;;;;;;14.23;68.79;100854.66;144994;567;5002;-88
2021/12/04 10:18:48;;;;;;;;;;;;;;;15.08;66.92;100821.09;145002;919;1020;-90
2021/12/04 10:32:27;;;;;;;7.82;5.90;;;;;;;15.88;62.55;100816.81;144994;646;5002;-90
2021/12/04 10:35:00;;;;;;;10.95;5.65;;;;;;;16.10;62.88;100831.84;144994;617;5002;-87
2021/12/04 10:37:30;;;;;;;9.90;6.15;;;;;;;16.46;64.94;100834.75;144994;594;5002;-90
2021/12/04 10:40:01;;;;;;;8.48;6.40;;;;;;;16.64;64.27;100834.03;144994;587;5002;-89
2021/12/04 10:42:38;;;;;;;7.55;5.80;;;;;;;16.54;64.15;100840.06;144993;647;5002;-91
2021/12/04 10:45:05;;;;;;;7.47;5.95;;;;;;;16.69;62.05;100843.66;144994;637;5002;-89
2021/12/04 10:47:31;;;;;;;7.75;4.53;;;;;;;16.19;61.45;100838.91;144994;623;5002;-87
2021/12/04 10:50:21;;;;;;;7.55;6.30;;;;;;;16.19;64.03;100840.66;144994;589;5002;-89
2021/12/04 10:52:59;;;;;;;11.93;7.18;;;;;;;16.47;64.10;100841.75;144994;571;5002;-89
2021/12/04 10:55:45;;;;;;;10.90;8.82;;;;;;;16.46;63.79;100851.38;144994;649;5002;-88
2021/12/04 11:04:40;;;;;;;14.73;11.52;;;;;;;16.02;64.20;100851.88;144994;586;5002;-88
2021/12/04 11:19:16;;;;;;;7.45;5.50;;;;;;;16.85;63.58;100843.75;144994;564;5002;-89
2021/12/04 11:47:45;;;;;;;13.18;5.70;;;;;;;17.16;60.72;100762.63;144992;619;6004;-89
2021/12/04 11:50:35;;;;;;;7.82;4.90;;;;;;;17.25;61.46;100767.06;144992;597;6004;-87
2021/12/04 11:53:06;;;;;;;6.80;4.12;;;;;;;17.25;61.34;100774.91;144992;591;6002;-90
2021/12/04 11:55:39;;;;;;;4.70;3.40;;;;;;;17.25;61.44;100767.06;144992;578;6002;-90
2021/12/04 11:58:31;;;;;;;5.20;3.60;;;;;;;17.16;61.54;100752.16;144992;598;6002;-90
2021/12/04 12:01:06;;;;;;;5.15;3.62;;;;;;;17.08;61.71;100746.88;144992;638;6004;-89
2021/12/04 12:03:33;;;;;;;;;;;;;;;16.56;60.58;100752.75;144997;909;6004;-89
2021/12/04 12:06:09;;;;;;;5.50;3.28;;;;;;;16.51;62.81;100743.94;144997;579;6002;-87
2021/12/04 12:08:41;;;;;;;6.80;3.65;;;;;;;16.44;62.86;100745.66;144992;676;6002;-89
2021/12/04 12:11:35;;;;;;;8.18;3.80;;;;;;;16.07;63.43;100745.41;144991;623;6002;-88
2021/12/04 12:14:58;;;;;;;7.60;3.78;;;;;;;16.48;63.18;100738.69;144992;692;6004;-82
2021/12/04 12:17:35;;;;;;;6.07;3.42;;;;;;;16.73;62.80;100742.31;144992;569;6014;-91
2021/12/04 12:20:10;;;;;;;6.25;3.87;;;;;;;16.95;62.12;100743.31;144992;566;6002;-88
2021/12/04 12:22:45;;;;;;;7.82;3.50;;;;;;;17.05;62.09;100749.47;144992;602;6002;-90
2021/12/04 12:25:34;;;;;;;3.67;2.60;;;;;;;16.86;62.43;100759.00;144992;737;6003;-90
2021/12/04 12:36:41;;;;;;;2.08;1.67;;;;;;;17.19;61.51;100720.69;144992;605;6004;-89
2021/12/04 12:39:18;;;;;;;2.53;1.80;;;;;;;17.40;61.50;100715.50;144991;573;6000;-88
2021/12/04 12:41:48;;;;;;;2.85;2.03;;;;;;;17.53;61.07;100702.34;144992;593;6002;-89
2021/12/04 12:44:35;;;;;;;3.30;1.62;;;;;;;17.68;60.85;100704.13;144992;583;6002;-90
2021/12/04 12:47:15;;;;;;;6.10;1.70;;;;;;;17.54;58.85;100694.50;144992;587;6004;-89
2021/12/04 12:49:46;;;;;;;3.80;1.90;;;;;;;17.74;60.39;100685.75;144992;567;6004;-90
2021/12/04 12:52:29;;;;;;;2.72;1.70;;;;;;;17.81;60.50;100687.50;144992;713;6004;-92
2021/12/04 12:55:01;;;;;;;4.72;1.98;;;;;;;17.86;60.37;100675.22;144992;567;6004;-90
2021/12/04 12:57:37;;;;;;;3.78;1.75;;;;;;;17.78;60.14;100669.12;144992;589;6004;-86
2021/12/04 13:12:20;;;;;;;2.47;1.50;;;;;;;17.32;60.66;100648.13;144992;585;6004;-89
2021/12/04 13:14:51;;;;;;;2.75;1.27;;;;;;;17.40;60.10;100643.75;144992;654;6002;-89
2021/12/04 13:17:29;;;;;;;3.87;1.60;;;;;;;17.39;60.30;100639.41;144992;607;6002;-88
2021/12/04 13:19:57;;;;;;;4.87;1.67;;;;;;;16.81;59.25;100640.13;144992;647;6002;-88
2021/12/04 13:22:30;;;;;;;2.28;1.50;;;;;;;16.60;59.42;100643.56;144992;576;6002;-90
2021/12/04 13:25:00;;;;;;;2.80;1.80;;;;;;;16.65;61.64;100653.16;144992;572;6002;-89
2021/12/04 13:30:06;;;;;;;2.08;1.20;;;;;;;16.00;62.31;100669.44;144992;590;6004;-92
2021/12/04 13:32:40;;;;;;;2.10;1.40;;;;;;;16.09;62.15;100675.59;144992;594;6004;-89
2021/12/04 13:35:14;;;;;;;2.40;1.48;;;;;;;16.17;62.59;100678.25;144992;564;6004;-89
2021/12/04 13:37:43;;;;;;;1.60;1.35;;;;;;;16.34;61.78;100694.09;144992;588;6004;-90
2021/12/04 13:40:19;;;;;;;2.45;1.30;;;;;;;16.07;62.53;100706.12;144992;600;6004;-90
2021/12/04 13:42:48;;;;;;;1.73;1.37;;;;;;;15.88;62.36;100709.50;144992;566;6004;-88
2021/12/04 13:45:19;;;;;;;3.22;1.30;;;;;;;16.06;62.70;100721.84;144992;565;6004;-91
2021/12/04 13:47:54;;;;;;;2.03;1.30;;;;;;;16.03;62.49;100734.91;144992;596;6004;-89
2021/12/04 13:53:25;;;;;;;2.85;1.30;;;;;;;15.69;62.95;100726.75;144992;620;6002;-92
2021/12/04 13:56:05;;;;;;;2.25;1.60;;;;;;;15.46;64.00;100735.22;144992;687;6002;-90
2021/12/04 13:58:31;;;;;;;3.12;1.60;;;;;;;15.64;63.69;100738.87;144992;640;6002;-90
2021/12/04 14:01:01;;;;;;;3.78;1.90;;;;;;;15.65;63.05;100748.50;144992;566;6002;-91
2021/12/04 14:03:31;;;;;;;3.22;1.55;;;;;;;15.75;63.01;100752.97;144992;576;6002;-90
2021/12/04 14:05:58;;;;;;;2.97;1.90;;;;;;;15.84;62.79;100762.69;144992;583;6002;-90
2021/12/04 14:08:25;;;;;;;2.78;1.70;;;;;;;15.88;62.59;100770.56;144992;679;6002;-88
2021/12/04 14:10:52;;;;;;;4.60;2.15;;;;;;;15.85;62.65;100767.06;144992;637;6002;-92
2021/12/04 14:13:23;;;;;;;3.28;1.90;;;;;;;15.83;62.84;100774.91;144992;630;6002;-90
2021/12/04 14:15:55;;;;;;;3.10;1.83;;;;;;;15.73;62.76;100778.22;144992;646;6002;-91
2021/12/04 14:18:24;;;;;;;3.17;1.73;;;;;;;15.23;63.87;100776.84;144992;582;6002;-90
2021/12/04 14:20:54;;;;;;;2.50;1.60;;;;;;;15.30;64.03;100777.78;144992;596;6002;-88
2021/12/04 14:23:24;;;;;;;1.70;1.30;;;;;;;15.32;63.83;100778.69;144993;596;6002;-87
2021/12/04 14:25:53;;;;;;;4.00;1.40;;;;;;;15.26;63.45;100773.41;144992;569;6002;-90
2021/12/04 14:28:24;;;;;;;3.67;1.70;;;;;;;15.33;63.57;100775.22;144992;636;6002;-90
2021/12/04 14:30:52;;;;;;;5.82;1.80;;;;;;;15.00;64.39;100773.94;144992;603;6002;-90
2021/12/04 14:33:22;;;;;;;4.05;1.60;;;;;;;15.00;64.32;100771.34;144992;666;6002;-87
2021/12/04 14:35:51;;;;;;;3.12;1.80;;;;;;;15.10;63.78;100773.22;144992;603;6002;-90
2021/12/04 14:38:24;;;;;;;4.15;1.90;;;;;;;14.94;64.11;100784.34;144992;566;6002;-90
2021/12/04 14:41:07;;;;;;;2.47;1.87;;;;;;;14.96;64.35;100777.41;144992;565;6002;-89
2021/12/04 14:43:38;;;;;;;3.47;1.75;;;;;;;14.94;64.19;100773.91;144992;589;6002;-88
2021/12/04 14:46:10;;;;;;;3.65;1.98;;;;;;;15.12;63.55;100773.25;144992;595;6002;-87
2021/12/04 14:48:40;;;;;;;2.67;1.95;;;;;;;15.16;63.24;100775.91;144992;580;6002;-89
2021/12/04 14:51:15;;;;;;;4.22;2.70;;;;;;;15.15;63.15;100775.87;144992;622;6002;-88
2021/12/04 14:53:48;;;;;;;3.58;2.28;;;;;;;15.08;63.71;100779.28;144992;667;6002;-89
2021/12/04 14:56:16;;;;;;;4.87;2.30;;;;;;;14.83;64.08;100779.84;144992;657;6002;-90
2021/12/04 14:58:42;;;;;;;6.43;2.12;;;;;;;14.91;64.41;100779.09;144992;626;6002;-91
2021/12/04 15:01:17;;;;;;;2.62;2.00;;;;;;;14.87;63.86;100781.66;144992;588;6002;-89
2021/12/04 15:03:55;;;;;;;;;;;;;;;14.98;63.67;100776.53;144997;912;6002;-90
2021/12/04 15:06:24;;;;;;;4.47;1.87;;;;;;;15.06;63.60;100760.97;144997;594;6002;-88